Searcy, Arkansas
Current Conditions -  °F | °C
As of 11:56 PM on Friday 24 Oct 2014 (Local Time) from KSRC Reporting Station
Clear Clear  
Wind Chill: 57°   Ceiling: Unl
Heat Index: 57°   Visibility: 10mi
Dew Point: 56°   Wind: 5mph
Humidity: 96%   Direction: 220°SW
Pressure: 30.1"   Gusts: NA
Location:  35.25°N, 91.74°W
Report Text: KSRC 250456Z AUTO 22004KT 10SM CLR 14/13 A3010 RMK AO2 SLP198 T01390133 402500067 TSNO
Loading
Personal Weather Stations






























Interactive Weather Map New forecast layout! Learn more

10-Day Weather Forecast

Advertisements
Track Severe Weather on mobile